Aeroporto :
LOGIN :

Iscrizione | Disclaimer

   EN    FR    IT 

 










Sommario :    VFR   VFR Marginale   IFR   IFR Intensivo   IFR Molto Intensivo
Visibilità : 
Base nubi : 
>= 8 km
>= 3000ft
5 / 8 km
1000 / 3000 ft
1500m / 5 km
500 / 1000 ft
800 / 1500m
200 / 500 ft
< 800m
< 200 ft
Simboli :   Temporali  Nebbia  Neve Forte  Precipitazioni Forti  Vento > 20 kt
SIGMETs :   Varie  Temporali  Ghiacco  Turbolenza  Onda orograficha  Ceneri Vulcaniche







- Altitudine del aeroporto : 194 ft


EBCV - Chièvres

ULTIMO METAR :
  • 230625Z AUTO 21008KT 9999 FEW044/// 13/12 Q1013 BLU

METARs OBSOLETI :
  • 230555Z AUTO 21008KT 9999 SCT041/// 13/12 Q1013 BLU
  • 230525Z AUTO 21008KT 9999 BKN041/// 14/13 Q1013 BLU
  • 230455Z AUTO 21008KT 9999 FEW042/// 14/13 Q1012 BLU
  • 230425Z AUTO 20007KT 9999 FEW250/// 14/13 Q1012 BLU
  • 230355Z AUTO 20007KT 9999 FEW013/// SCT240/// 14/14 Q1012 BLU
  • 222355Z AUTO 19007KT 9999 BKN013/// BKN170/// 15/15 Q1011 GRN

TAF TAF EBCV
Valido dal 23 a 07 ore il 23 a 16 ore UTC


230541Z 2307/2316 20008KT 9000 FEW013 SCT025
TEMPO 2307/2310 5000 BR SCT015 BKN020
BECMG 2309/2311 23010KT 9999 FEW025 BY EBWM
Nessun NOTAM noto per questo aeroporto.



MetMap, La meteo Aeronautica in un colpo d'occhio ! - Copyright ORBIFLY Dicembre 2007 - Disclaimer

ORBIFLY MET'MAP TEAM :

Programmazione e sviluppo : Alexandra Zaïnal
Concezione e sviluppo : Baudouin d'Aumeries
Co-Programmazione e sviluppo : Marc-Olivier Méhu
Supporto tecnico e logistico : Manuel Goepfert
Aiuto per la traduzione : Arnaldo La Scala

Contatto : metmap@orbifly.com




FONTI E CREDITI :

   NOAA